sensor_id;sensor_type;location;lat;lon;timestamp;temperature;humidity
14357;DHT22;7262;48.764;9.166;2022-11-11T00:00:13;6.10;99.90
14357;DHT22;7262;48.764;9.166;2022-11-11T00:02:40;6.00;99.90
14357;DHT22;7262;48.764;9.166;2022-11-11T00:05:08;6.00;99.90
14357;DHT22;7262;48.764;9.166;2022-11-11T00:07:37;5.90;99.90
14357;DHT22;7262;48.764;9.166;2022-11-11T00:10:04;5.90;99.90
14357;DHT22;7262;48.764;9.166;2022-11-11T00:12:31;5.90;99.90
14357;DHT22;7262;48.764;9.166;2022-11-11T00:14:58;5.90;99.90
14357;DHT22;7262;48.764;9.166;2022-11-11T00:17:25;5.90;99.90
14357;DHT22;7262;48.764;9.166;2022-11-11T00:20:11;5.80;99.90
14357;DHT22;7262;48.764;9.166;2022-11-11T00:22:51;5.90;99.90
14357;DHT22;7262;48.764;9.166;2022-11-11T00:25:35;5.90;99.90
14357;DHT22;7262;48.764;9.166;2022-11-11T00:28:03;5.80;99.90
14357;DHT22;7262;48.764;9.166;2022-11-11T00:30:30;5.80;99.90
14357;DHT22;7262;48.764;9.166;2022-11-11T00:32:57;5.80;99.90
14357;DHT22;7262;48.764;9.166;2022-11-11T00:35:25;5.80;99.90
14357;DHT22;7262;48.764;9.166;2022-11-11T00:38:09;5.80;99.90
14357;DHT22;7262;48.764;9.166;2022-11-11T00:40:57;5.70;99.90
14357;DHT22;7262;48.764;9.166;2022-11-11T00:43:24;5.70;99.90
14357;DHT22;7262;48.764;9.166;2022-11-11T00:45:51;5.70;99.90
14357;DHT22;7262;48.764;9.166;2022-11-11T00:48:18;5.70;99.90
14357;DHT22;7262;48.764;9.166;2022-11-11T00:51:12;5.70;99.90
14357;DHT22;7262;48.764;9.166;2022-11-11T00:53:39;5.70;99.90
14357;DHT22;7262;48.764;9.166;2022-11-11T00:56:05;5.70;99.90
14357;DHT22;7262;48.764;9.166;2022-11-11T00:58:32;5.70;99.90
14357;DHT22;7262;48.764;9.166;2022-11-11T01:00:59;5.60;99.90
14357;DHT22;7262;48.764;9.166;2022-11-11T01:03:26;5.60;99.90
14357;DHT22;7262;48.764;9.166;2022-11-11T01:05:53;5.60;99.90
14357;DHT22;7262;48.764;9.166;2022-11-11T01:08:21;5.50;99.90
14357;DHT22;7262;48.764;9.166;2022-11-11T01:10:50;5.50;99.90
14357;DHT22;7262;48.764;9.166;2022-11-11T01:13:18;5.50;99.90
14357;DHT22;7262;48.764;9.166;2022-11-11T01:15:46;5.50;99.90
14357;DHT22;7262;48.764;9.166;2022-11-11T01:18:14;5.50;99.90
14357;DHT22;7262;48.764;9.166;2022-11-11T01:20:41;5.50;99.90
14357;DHT22;7262;48.764;9.166;2022-11-11T01:23:08;5.50;99.90
14357;DHT22;7262;48.764;9.166;2022-11-11T01:25:37;5.50;99.90
14357;DHT22;7262;48.764;9.166;2022-11-11T01:28:05;5.50;99.90
14357;DHT22;7262;48.764;9.166;2022-11-11T01:30:32;5.50;99.90
14357;DHT22;7262;48.764;9.166;2022-11-11T01:32:59;5.50;99.90
14357;DHT22;7262;48.764;9.166;2022-11-11T01:35:29;5.40;99.90
14357;DHT22;7262;48.764;9.166;2022-11-11T01:37:55;5.40;99.90
14357;DHT22;7262;48.764;9.166;2022-11-11T01:40:22;5.40;99.90
14357;DHT22;7262;48.764;9.166;2022-11-11T01:42:51;5.40;99.90
14357;DHT22;7262;48.764;9.166;2022-11-11T01:48:03;5.40;99.90
14357;DHT22;7262;48.764;9.166;2022-11-11T01:50:47;5.40;99.90
14357;DHT22;7262;48.764;9.166;2022-11-11T01:53:14;5.40;99.90
14357;DHT22;7262;48.764;9.166;2022-11-11T01:55:41;5.40;99.90
14357;DHT22;7262;48.764;9.166;2022-11-11T01:58:10;5.40;99.90
14357;DHT22;7262;48.764;9.166;2022-11-11T02:00:38;5.40;99.90
14357;DHT22;7262;48.764;9.166;2022-11-11T02:03:06;5.40;99.90
14357;DHT22;7262;48.764;9.166;2022-11-11T02:05:35;5.40;99.90
14357;DHT22;7262;48.764;9.166;2022-11-11T02:08:08;5.40;99.90
14357;DHT22;7262;48.764;9.166;2022-11-11T02:10:36;5.40;99.90
14357;DHT22;7262;48.764;9.166;2022-11-11T02:13:04;5.40;99.90
14357;DHT22;7262;48.764;9.166;2022-11-11T02:15:50;5.40;99.90
14357;DHT22;7262;48.764;9.166;2022-11-11T02:18:17;5.30;99.90
14357;DHT22;7262;48.764;9.166;2022-11-11T02:20:44;5.40;99.90
14357;DHT22;7262;48.764;9.166;2022-11-11T02:23:12;5.40;99.90
14357;DHT22;7262;48.764;9.166;2022-11-11T02:25:42;5.40;99.90
14357;DHT22;7262;48.764;9.166;2022-11-11T02:28:09;5.40;99.90
14357;DHT22;7262;48.764;9.166;2022-11-11T02:30:37;5.40;99.90
14357;DHT22;7262;48.764;9.166;2022-11-11T02:33:04;5.40;99.90
14357;DHT22;7262;48.764;9.166;2022-11-11T02:35:32;5.40;99.90
14357;DHT22;7262;48.764;9.166;2022-11-11T02:38:00;5.40;99.90
14357;DHT22;7262;48.764;9.166;2022-11-11T02:40:32;5.40;99.90
14357;DHT22;7262;48.764;9.166;2022-11-11T02:43:01;5.40;99.90
14357;DHT22;7262;48.764;9.166;2022-11-11T02:45:28;5.40;99.90
14357;DHT22;7262;48.764;9.166;2022-11-11T02:47:55;5.40;99.90
14357;DHT22;7262;48.764;9.166;2022-11-11T02:50:22;5.30;99.90
14357;DHT22;7262;48.764;9.166;2022-11-11T02:52:48;5.30;99.90
14357;DHT22;7262;48.764;9.166;2022-11-11T02:55:15;5.30;99.90
14357;DHT22;7262;48.764;9.166;2022-11-11T02:57:42;5.30;99.90
14357;DHT22;7262;48.764;9.166;2022-11-11T03:00:11;5.20;99.90
14357;DHT22;7262;48.764;9.166;2022-11-11T03:02:38;5.20;99.90
14357;DHT22;7262;48.764;9.166;2022-11-11T03:05:05;5.20;99.90
14357;DHT22;7262;48.764;9.166;2022-11-11T03:07:32;5.20;99.90
14357;DHT22;7262;48.764;9.166;2022-11-11T03:09:58;5.20;99.90
14357;DHT22;7262;48.764;9.166;2022-11-11T03:12:25;5.20;99.90
14357;DHT22;7262;48.764;9.166;2022-11-11T03:14:52;5.20;99.90
14357;DHT22;7262;48.764;9.166;2022-11-11T03:17:20;5.20;99.90
14357;DHT22;7262;48.764;9.166;2022-11-11T03:20:05;5.10;99.90
14357;DHT22;7262;48.764;9.166;2022-11-11T03:22:59;5.10;99.90
14357;DHT22;7262;48.764;9.166;2022-11-11T03:25:26;5.10;99.90
14357;DHT22;7262;48.764;9.166;2022-11-11T03:28:06;5.10;99.90
14357;DHT22;7262;48.764;9.166;2022-11-11T03:30:33;5.10;99.90
14357;DHT22;7262;48.764;9.166;2022-11-11T03:33:03;5.10;99.90
14357;DHT22;7262;48.764;9.166;2022-11-11T03:35:30;5.00;99.90
14357;DHT22;7262;48.764;9.166;2022-11-11T03:37:57;5.00;99.90
14357;DHT22;7262;48.764;9.166;2022-11-11T03:40:43;5.00;99.90
14357;DHT22;7262;48.764;9.166;2022-11-11T03:43:10;5.00;99.90
14357;DHT22;7262;48.764;9.166;2022-11-11T03:45:38;5.00;99.90
14357;DHT22;7262;48.764;9.166;2022-11-11T03:48:06;5.00;99.90
14357;DHT22;7262;48.764;9.166;2022-11-11T03:50:34;5.00;99.90
14357;DHT22;7262;48.764;9.166;2022-11-11T03:53:01;5.00;99.90
14357;DHT22;7262;48.764;9.166;2022-11-11T03:55:28;5.00;99.90
14357;DHT22;7262;48.764;9.166;2022-11-11T03:57:55;5.00;99.90
14357;DHT22;7262;48.764;9.166;2022-11-11T04:00:22;5.00;99.90
14357;DHT22;7262;48.764;9.166;2022-11-11T04:02:49;5.00;99.90
14357;DHT22;7262;48.764;9.166;2022-11-11T04:05:35;5.00;99.90
14357;DHT22;7262;48.764;9.166;2022-11-11T04:08:20;5.00;99.90
14357;DHT22;7262;48.764;9.166;2022-11-11T04:11:06;5.10;99.90
14357;DHT22;7262;48.764;9.166;2022-11-11T04:13:34;5.00;99.90
14357;DHT22;7262;48.764;9.166;2022-11-11T04:16:19;5.00;99.90
14357;DHT22;7262;48.764;9.166;2022-11-11T04:18:46;5.20;99.90
14357;DHT22;7262;48.764;9.166;2022-11-11T04:21:32;5.00;99.90
14357;DHT22;7262;48.764;9.166;2022-11-11T04:24:13;5.00;99.90
14357;DHT22;7262;48.764;9.166;2022-11-11T04:26:57;5.10;99.90
14357;DHT22;7262;48.764;9.166;2022-11-11T04:29:24;5.10;99.90
14357;DHT22;7262;48.764;9.166;2022-11-11T04:31:53;5.10;99.90
14357;DHT22;7262;48.764;9.166;2022-11-11T04:34:38;5.10;99.90
14357;DHT22;7262;48.764;9.166;2022-11-11T04:37:06;5.10;99.90
14357;DHT22;7262;48.764;9.166;2022-11-11T04:39:33;5.10;99.90
14357;DHT22;7262;48.764;9.166;2022-11-11T04:42:17;5.10;99.90
14357;DHT22;7262;48.764;9.166;2022-11-11T04:44:43;5.10;99.90
14357;DHT22;7262;48.764;9.166;2022-11-11T04:47:28;5.00;99.90
14357;DHT22;7262;48.764;9.166;2022-11-11T04:49:54;5.00;99.90
14357;DHT22;7262;48.764;9.166;2022-11-11T04:52:22;4.90;99.90
14357;DHT22;7262;48.764;9.166;2022-11-11T04:54:52;4.90;99.90
14357;DHT22;7262;48.764;9.166;2022-11-11T04:57:37;4.90;99.90
14357;DHT22;7262;48.764;9.166;2022-11-11T05:00:05;4.80;99.90
14357;DHT22;7262;48.764;9.166;2022-11-11T05:02:32;4.90;99.90
14357;DHT22;7262;48.764;9.166;2022-11-11T05:05:16;4.90;99.90
14357;DHT22;7262;48.764;9.166;2022-11-11T05:07:44;4.90;99.90
14357;DHT22;7262;48.764;9.166;2022-11-11T05:10:28;4.90;99.90
14357;DHT22;7262;48.764;9.166;2022-11-11T05:12:55;5.00;99.90
14357;DHT22;7262;48.764;9.166;2022-11-11T05:15:42;5.00;99.90
14357;DHT22;7262;48.764;9.166;2022-11-11T05:18:27;4.90;99.90
14357;DHT22;7262;48.764;9.166;2022-11-11T05:21:11;4.90;99.90
14357;DHT22;7262;48.764;9.166;2022-11-11T05:23:49;4.90;99.90
14357;DHT22;7262;48.764;9.166;2022-11-11T05:26:33;4.90;99.90
14357;DHT22;7262;48.764;9.166;2022-11-11T05:29:00;4.90;99.90
14357;DHT22;7262;48.764;9.166;2022-11-11T05:31:27;4.90;99.90
14357;DHT22;7262;48.764;9.166;2022-11-11T05:33:54;4.80;99.90
14357;DHT22;7262;48.764;9.166;2022-11-11T05:36:21;4.90;99.90
14357;DHT22;7262;48.764;9.166;2022-11-11T05:38:49;4.90;99.90
14357;DHT22;7262;48.764;9.166;2022-11-11T05:41:15;4.90;99.90
14357;DHT22;7262;48.764;9.166;2022-11-11T05:43:42;4.80;99.90
14357;DHT22;7262;48.764;9.166;2022-11-11T05:46:09;4.80;99.90
14357;DHT22;7262;48.764;9.166;2022-11-11T05:48:35;4.80;99.90
14357;DHT22;7262;48.764;9.166;2022-11-11T05:51:23;4.80;99.90
14357;DHT22;7262;48.764;9.166;2022-11-11T05:53:55;4.80;99.90
14357;DHT22;7262;48.764;9.166;2022-11-11T05:56:23;4.80;99.90
14357;DHT22;7262;48.764;9.166;2022-11-11T05:58:50;4.80;99.90
14357;DHT22;7262;48.764;9.166;2022-11-11T06:01:17;4.80;99.90
14357;DHT22;7262;48.764;9.166;2022-11-11T06:03:44;4.70;99.90
14357;DHT22;7262;48.764;9.166;2022-11-11T06:06:11;4.80;99.90
14357;DHT22;7262;48.764;9.166;2022-11-11T06:08:38;4.80;99.90
14357;DHT22;7262;48.764;9.166;2022-11-11T06:11:06;4.70;99.90
14357;DHT22;7262;48.764;9.166;2022-11-11T06:13:33;4.70;99.90
14357;DHT22;7262;48.764;9.166;2022-11-11T06:16:00;4.80;99.90
14357;DHT22;7262;48.764;9.166;2022-11-11T06:18:27;4.80;99.90
14357;DHT22;7262;48.764;9.166;2022-11-11T06:20:54;4.80;99.90
14357;DHT22;7262;48.764;9.166;2022-11-11T06:23:21;4.80;99.90
14357;DHT22;7262;48.764;9.166;2022-11-11T06:25:48;4.80;99.90
14357;DHT22;7262;48.764;9.166;2022-11-11T06:28:33;4.80;99.90
14357;DHT22;7262;48.764;9.166;2022-11-11T06:31:00;4.80;99.90
14357;DHT22;7262;48.764;9.166;2022-11-11T06:33:27;4.80;99.90
14357;DHT22;7262;48.764;9.166;2022-11-11T06:35:54;4.80;99.90
14357;DHT22;7262;48.764;9.166;2022-11-11T06:38:21;4.90;99.90
14357;DHT22;7262;48.764;9.166;2022-11-11T06:40:47;4.90;99.90
14357;DHT22;7262;48.764;9.166;2022-11-11T06:43:14;4.90;99.90
14357;DHT22;7262;48.764;9.166;2022-11-11T06:45:42;5.00;99.90
14357;DHT22;7262;48.764;9.166;2022-11-11T06:48:09;5.00;99.90
14357;DHT22;7262;48.764;9.166;2022-11-11T06:50:37;5.00;99.90
14357;DHT22;7262;48.764;9.166;2022-11-11T06:53:04;5.10;99.90
14357;DHT22;7262;48.764;9.166;2022-11-11T06:55:31;5.20;99.90
14357;DHT22;7262;48.764;9.166;2022-11-11T06:58:03;5.20;99.90
14357;DHT22;7262;48.764;9.166;2022-11-11T07:00:29;5.20;99.90
14357;DHT22;7262;48.764;9.166;2022-11-11T07:02:58;5.40;99.90
14357;DHT22;7262;48.764;9.166;2022-11-11T07:05:24;5.30;99.90
14357;DHT22;7262;48.764;9.166;2022-11-11T07:10:33;5.60;99.90
14357;DHT22;7262;48.764;9.166;2022-11-11T07:13:01;5.50;99.90
14357;DHT22;7262;48.764;9.166;2022-11-11T07:15:30;5.60;99.90
14357;DHT22;7262;48.764;9.166;2022-11-11T07:17:58;5.60;99.90
14357;DHT22;7262;48.764;9.166;2022-11-11T07:20:24;5.70;99.90
14357;DHT22;7262;48.764;9.166;2022-11-11T07:48:46;6.80;99.90
14357;DHT22;7262;48.764;9.166;2022-11-11T07:51:16;6.90;99.90
14357;DHT22;7262;48.764;9.166;2022-11-11T07:53:42;7.10;99.90
14357;DHT22;7262;48.764;9.166;2022-11-11T07:56:09;7.10;99.90
14357;DHT22;7262;48.764;9.166;2022-11-11T08:37:28;8.50;99.90
14357;DHT22;7262;48.764;9.166;2022-11-11T08:39:55;8.40;99.90
14357;DHT22;7262;48.764;9.166;2022-11-11T08:42:22;8.40;99.90
14357;DHT22;7262;48.764;9.166;2022-11-11T08:44:49;8.60;99.90
14357;DHT22;7262;48.764;9.166;2022-11-11T08:47:16;8.60;99.90
14357;DHT22;7262;48.764;9.166;2022-11-11T08:49:44;8.60;99.90
14357;DHT22;7262;48.764;9.166;2022-11-11T08:52:13;8.80;99.90
14357;DHT22;7262;48.764;9.166;2022-11-11T09:05:03;8.80;99.90
14357;DHT22;7262;48.764;9.166;2022-11-11T09:07:31;8.80;99.90
14357;DHT22;7262;48.764;9.166;2022-11-11T09:48:51;10.20;99.90
14357;DHT22;7262;48.764;9.166;2022-11-11T09:51:24;10.40;99.90
14357;DHT22;7262;48.764;9.166;2022-11-11T09:53:53;10.60;99.90
14357;DHT22;7262;48.764;9.166;2022-11-11T09:56:23;10.70;99.90
14357;DHT22;7262;48.764;9.166;2022-11-11T09:58:51;10.80;99.90
14357;DHT22;7262;48.764;9.166;2022-11-11T10:01:19;11.00;99.90
14357;DHT22;7262;48.764;9.166;2022-11-11T10:03:48;11.10;99.90
14357;DHT22;7262;48.764;9.166;2022-11-11T10:06:19;11.20;99.90
14357;DHT22;7262;48.764;9.166;2022-11-11T10:08:48;11.40;99.90
14357;DHT22;7262;48.764;9.166;2022-11-11T10:11:17;11.70;99.90
14357;DHT22;7262;48.764;9.166;2022-11-11T10:13:46;11.70;99.90
14357;DHT22;7262;48.764;9.166;2022-11-11T10:16:14;11.70;99.90
14357;DHT22;7262;48.764;9.166;2022-11-11T10:18:49;11.80;99.90
14357;DHT22;7262;48.764;9.166;2022-11-11T10:21:22;11.80;99.90
14357;DHT22;7262;48.764;9.166;2022-11-11T10:23:50;11.80;99.90
14357;DHT22;7262;48.764;9.166;2022-11-11T10:26:18;11.90;99.90
14357;DHT22;7262;48.764;9.166;2022-11-11T10:28:45;12.20;99.90
14357;DHT22;7262;48.764;9.166;2022-11-11T10:31:15;12.20;99.90
14357;DHT22;7262;48.764;9.166;2022-11-11T10:33:44;12.10;99.90
14357;DHT22;7262;48.764;9.166;2022-11-11T10:36:14;12.20;99.90
14357;DHT22;7262;48.764;9.166;2022-11-11T10:38:46;12.10;99.90
14357;DHT22;7262;48.764;9.166;2022-11-11T10:41:17;12.10;99.90
14357;DHT22;7262;48.764;9.166;2022-11-11T10:43:45;12.00;99.90
14357;DHT22;7262;48.764;9.166;2022-11-11T10:46:14;11.90;99.90
14357;DHT22;7262;48.764;9.166;2022-11-11T10:48:45;12.20;99.90
14357;DHT22;7262;48.764;9.166;2022-11-11T10:51:15;12.30;99.90
14357;DHT22;7262;48.764;9.166;2022-11-11T10:53:45;12.40;99.90
14357;DHT22;7262;48.764;9.166;2022-11-11T10:56:15;12.20;99.90
14357;DHT22;7262;48.764;9.166;2022-11-11T10:58:46;12.60;99.90
14357;DHT22;7262;48.764;9.166;2022-11-11T11:01:15;13.00;99.90
14357;DHT22;7262;48.764;9.166;2022-11-11T11:03:46;13.50;99.90
14357;DHT22;7262;48.764;9.166;2022-11-11T11:06:15;13.80;99.90
14357;DHT22;7262;48.764;9.166;2022-11-11T11:08:46;14.30;99.90
14357;DHT22;7262;48.764;9.166;2022-11-11T11:11:18;14.50;99.90
14357;DHT22;7262;48.764;9.166;2022-11-11T11:13:47;15.00;99.90
14357;DHT22;7262;48.764;9.166;2022-11-11T11:16:16;15.60;99.90
14357;DHT22;7262;48.764;9.166;2022-11-11T11:18:44;16.20;99.90
14357;DHT22;7262;48.764;9.166;2022-11-11T11:21:42;16.20;99.90
14357;DHT22;7262;48.764;9.166;2022-11-11T11:24:19;16.10;99.90
14357;DHT22;7262;48.764;9.166;2022-11-11T11:26:47;15.90;99.90
14357;DHT22;7262;48.764;9.166;2022-11-11T11:29:22;15.60;99.90
14357;DHT22;7262;48.764;9.166;2022-11-11T11:31:51;15.20;99.90
14357;DHT22;7262;48.764;9.166;2022-11-11T11:34:18;14.90;99.90
14357;DHT22;7262;48.764;9.166;2022-11-11T11:36:57;15.20;99.90
14357;DHT22;7262;48.764;9.166;2022-11-11T11:42:01;16.20;99.90
14357;DHT22;7262;48.764;9.166;2022-11-11T11:44:28;16.90;99.90
14357;DHT22;7262;48.764;9.166;2022-11-11T11:46:57;17.00;99.90
14357;DHT22;7262;48.764;9.166;2022-11-11T11:49:31;16.90;99.90
14357;DHT22;7262;48.764;9.166;2022-11-11T11:52:01;16.40;99.90
14357;DHT22;7262;48.764;9.166;2022-11-11T11:54:36;15.90;99.90
14357;DHT22;7262;48.764;9.166;2022-11-11T11:57:12;15.50;99.90
14357;DHT22;7262;48.764;9.166;2022-11-11T11:59:44;14.90;99.90
14357;DHT22;7262;48.764;9.166;2022-11-11T12:02:17;14.50;99.90
14357;DHT22;7262;48.764;9.166;2022-11-11T12:05:00;14.20;99.90
14357;DHT22;7262;48.764;9.166;2022-11-11T12:07:34;14.00;99.90
14357;DHT22;7262;48.764;9.166;2022-11-11T12:10:08;14.40;99.90
14357;DHT22;7262;48.764;9.166;2022-11-11T12:12:49;14.80;99.90
14357;DHT22;7262;48.764;9.166;2022-11-11T12:18:21;15.20;99.90
14357;DHT22;7262;48.764;9.166;2022-11-11T12:20:54;15.40;99.90
14357;DHT22;7262;48.764;9.166;2022-11-11T12:23:29;15.50;99.90
14357;DHT22;7262;48.764;9.166;2022-11-11T12:26:00;15.60;99.90
14357;DHT22;7262;48.764;9.166;2022-11-11T12:28:33;15.80;99.90
14357;DHT22;7262;48.764;9.166;2022-11-11T12:31:06;15.80;99.90
14357;DHT22;7262;48.764;9.166;2022-11-11T12:33:40;16.20;99.90
14357;DHT22;7262;48.764;9.166;2022-11-11T12:36:12;16.90;99.90
14357;DHT22;7262;48.764;9.166;2022-11-11T12:38:44;17.60;99.90
14357;DHT22;7262;48.764;9.166;2022-11-11T12:41:15;17.20;99.90
14357;DHT22;7262;48.764;9.166;2022-11-11T12:43:48;16.40;99.90
14357;DHT22;7262;48.764;9.166;2022-11-11T13:04:31;19.30;99.90
14357;DHT22;7262;48.764;9.166;2022-11-11T13:07:03;19.40;99.90
14357;DHT22;7262;48.764;9.166;2022-11-11T13:09:34;19.40;99.90
14357;DHT22;7262;48.764;9.166;2022-11-11T13:12:10;19.70;99.90
14357;DHT22;7262;48.764;9.166;2022-11-11T13:14:48;19.30;99.90
14357;DHT22;7262;48.764;9.166;2022-11-11T13:17:17;18.40;99.90
14357;DHT22;7262;48.764;9.166;2022-11-11T13:19:48;17.60;99.90
14357;DHT22;7262;48.764;9.166;2022-11-11T13:22:19;17.00;99.90
14357;DHT22;7262;48.764;9.166;2022-11-11T13:24:47;16.70;99.90
14357;DHT22;7262;48.764;9.166;2022-11-11T13:27:15;16.80;99.90
14357;DHT22;7262;48.764;9.166;2022-11-11T13:32:41;17.40;99.90
14357;DHT22;7262;48.764;9.166;2022-11-11T13:35:11;17.20;99.90
14357;DHT22;7262;48.764;9.166;2022-11-11T13:37:43;17.20;99.90
14357;DHT22;7262;48.764;9.166;2022-11-11T13:40:18;17.00;99.90
14357;DHT22;7262;48.764;9.166;2022-11-11T13:42:48;16.60;99.90
14357;DHT22;7262;48.764;9.166;2022-11-11T13:45:20;16.40;99.90
14357;DHT22;7262;48.764;9.166;2022-11-11T13:47:49;16.20;99.90
14357;DHT22;7262;48.764;9.166;2022-11-11T13:50:22;15.90;99.90
14357;DHT22;7262;48.764;9.166;2022-11-11T13:52:52;15.80;99.90
14357;DHT22;7262;48.764;9.166;2022-11-11T13:55:23;15.90;99.90
14357;DHT22;7262;48.764;9.166;2022-11-11T13:57:52;16.20;99.90
14357;DHT22;7262;48.764;9.166;2022-11-11T14:00:23;16.40;99.90
14357;DHT22;7262;48.764;9.166;2022-11-11T14:03:04;16.80;99.90
14357;DHT22;7262;48.764;9.166;2022-11-11T14:06:02;17.40;99.90
14357;DHT22;7262;48.764;9.166;2022-11-11T14:08:50;18.10;99.90
14357;DHT22;7262;48.764;9.166;2022-11-11T14:11:25;18.10;99.90
14357;DHT22;7262;48.764;9.166;2022-11-11T14:13:52;18.00;99.90
14357;DHT22;7262;48.764;9.166;2022-11-11T14:19:12;17.20;99.90
14357;DHT22;7262;48.764;9.166;2022-11-11T14:21:54;16.80;99.90
14357;DHT22;7262;48.764;9.166;2022-11-11T14:24:21;16.50;99.90
14357;DHT22;7262;48.764;9.166;2022-11-11T14:26:55;16.20;99.90
14357;DHT22;7262;48.764;9.166;2022-11-11T14:29:22;16.10;99.90
14357;DHT22;7262;48.764;9.166;2022-11-11T14:37:20;15.50;99.90
14357;DHT22;7262;48.764;9.166;2022-11-11T14:39:49;15.30;99.90
14357;DHT22;7262;48.764;9.166;2022-11-11T14:45:03;14.90;99.90
14357;DHT22;7262;48.764;9.166;2022-11-11T14:47:31;14.80;99.90
14357;DHT22;7262;48.764;9.166;2022-11-11T14:49:58;14.80;99.90
14357;DHT22;7262;48.764;9.166;2022-11-11T14:52:27;14.70;99.90
14357;DHT22;7262;48.764;9.166;2022-11-11T14:55:04;14.60;99.90
14357;DHT22;7262;48.764;9.166;2022-11-11T14:57:36;14.40;99.90
14357;DHT22;7262;48.764;9.166;2022-11-11T15:00:08;14.40;99.90
14357;DHT22;7262;48.764;9.166;2022-11-11T15:02:47;14.10;99.90
14357;DHT22;7262;48.764;9.166;2022-11-11T15:05:16;13.90;99.90
14357;DHT22;7262;48.764;9.166;2022-11-11T15:10:30;13.60;99.90
14357;DHT22;7262;48.764;9.166;2022-11-11T15:13:03;13.40;99.90
14357;DHT22;7262;48.764;9.166;2022-11-11T15:15:38;13.20;99.90
14357;DHT22;7262;48.764;9.166;2022-11-11T15:18:10;13.00;99.90
14357;DHT22;7262;48.764;9.166;2022-11-11T15:20:52;12.90;99.90
14357;DHT22;7262;48.764;9.166;2022-11-11T15:23:24;12.80;99.90
14357;DHT22;7262;48.764;9.166;2022-11-11T15:33:51;12.30;99.90
14357;DHT22;7262;48.764;9.166;2022-11-11T15:36:34;12.20;99.90
14357;DHT22;7262;48.764;9.166;2022-11-11T16:23:08;10.50;99.90
14357;DHT22;7262;48.764;9.166;2022-11-11T16:33:33;10.30;99.90
14357;DHT22;7262;48.764;9.166;2022-11-11T16:36:07;10.20;99.90
14357;DHT22;7262;48.764;9.166;2022-11-11T16:38:35;10.10;99.90
14357;DHT22;7262;48.764;9.166;2022-11-11T16:41:04;10.00;99.90
14357;DHT22;7262;48.764;9.166;2022-11-11T16:43:31;10.00;99.90
14357;DHT22;7262;48.764;9.166;2022-11-11T16:46:04;10.00;99.90
14357;DHT22;7262;48.764;9.166;2022-11-11T16:48:38;10.00;99.90
14357;DHT22;7262;48.764;9.166;2022-11-11T16:51:07;9.90;99.90
14357;DHT22;7262;48.764;9.166;2022-11-11T16:53:36;9.80;99.90
14357;DHT22;7262;48.764;9.166;2022-11-11T16:56:13;9.80;99.90
14357;DHT22;7262;48.764;9.166;2022-11-11T16:58:41;9.70;99.90
14357;DHT22;7262;48.764;9.166;2022-11-11T17:01:10;9.70;99.90
14357;DHT22;7262;48.764;9.166;2022-11-11T17:03:39;9.60;99.90
14357;DHT22;7262;48.764;9.166;2022-11-11T17:06:17;9.60;99.90
14357;DHT22;7262;48.764;9.166;2022-11-11T17:08:47;9.50;99.90
14357;DHT22;7262;48.764;9.166;2022-11-11T17:13:57;9.40;99.90
14357;DHT22;7262;48.764;9.166;2022-11-11T17:16:24;9.30;99.90
14357;DHT22;7262;48.764;9.166;2022-11-11T17:18:51;9.30;99.90
14357;DHT22;7262;48.764;9.166;2022-11-11T17:21:18;9.30;99.90
14357;DHT22;7262;48.764;9.166;2022-11-11T17:23:47;9.20;99.90
14357;DHT22;7262;48.764;9.166;2022-11-11T17:26:13;9.10;99.90
14357;DHT22;7262;48.764;9.166;2022-11-11T17:28:42;9.20;99.90
14357;DHT22;7262;48.764;9.166;2022-11-11T17:31:11;9.10;99.90
14357;DHT22;7262;48.764;9.166;2022-11-11T17:33:38;9.00;99.90
14357;DHT22;7262;48.764;9.166;2022-11-11T17:36:05;9.00;99.90
14357;DHT22;7262;48.764;9.166;2022-11-11T17:38:34;9.00;99.90
14357;DHT22;7262;48.764;9.166;2022-11-11T17:41:03;8.90;99.90
14357;DHT22;7262;48.764;9.166;2022-11-11T17:43:36;8.90;99.90
14357;DHT22;7262;48.764;9.166;2022-11-11T17:46:02;8.90;99.90
14357;DHT22;7262;48.764;9.166;2022-11-11T17:48:30;8.80;99.90
14357;DHT22;7262;48.764;9.166;2022-11-11T17:50:57;8.80;99.90
14357;DHT22;7262;48.764;9.166;2022-11-11T17:53:26;8.70;99.90
14357;DHT22;7262;48.764;9.166;2022-11-11T17:55:53;8.70;99.90
14357;DHT22;7262;48.764;9.166;2022-11-11T17:58:26;8.60;99.90
14357;DHT22;7262;48.764;9.166;2022-11-11T18:01:07;8.60;99.90
14357;DHT22;7262;48.764;9.166;2022-11-11T18:03:35;8.60;99.90
14357;DHT22;7262;48.764;9.166;2022-11-11T18:06:03;8.60;99.90
14357;DHT22;7262;48.764;9.166;2022-11-11T18:08:30;8.50;99.90
14357;DHT22;7262;48.764;9.166;2022-11-11T18:10:58;8.60;99.90
14357;DHT22;7262;48.764;9.166;2022-11-11T18:13:26;8.50;99.90
14357;DHT22;7262;48.764;9.166;2022-11-11T18:15:53;8.50;99.90
14357;DHT22;7262;48.764;9.166;2022-11-11T18:18:21;8.40;99.90
14357;DHT22;7262;48.764;9.166;2022-11-11T18:20:47;8.40;99.90
14357;DHT22;7262;48.764;9.166;2022-11-11T18:23:14;8.30;99.90
14357;DHT22;7262;48.764;9.166;2022-11-11T18:25:41;8.30;99.90
14357;DHT22;7262;48.764;9.166;2022-11-11T18:28:08;8.30;99.90
14357;DHT22;7262;48.764;9.166;2022-11-11T18:30:36;8.20;99.90
14357;DHT22;7262;48.764;9.166;2022-11-11T18:33:03;8.20;99.90
14357;DHT22;7262;48.764;9.166;2022-11-11T18:35:30;8.20;99.90
14357;DHT22;7262;48.764;9.166;2022-11-11T18:37:57;8.10;99.90
14357;DHT22;7262;48.764;9.166;2022-11-11T18:40:24;8.20;99.90
14357;DHT22;7262;48.764;9.166;2022-11-11T18:42:52;8.00;99.90
14357;DHT22;7262;48.764;9.166;2022-11-11T18:45:19;8.00;99.90
14357;DHT22;7262;48.764;9.166;2022-11-11T18:47:47;8.00;99.90
14357;DHT22;7262;48.764;9.166;2022-11-11T18:50:13;8.00;99.90
14357;DHT22;7262;48.764;9.166;2022-11-11T18:52:40;8.00;99.90
14357;DHT22;7262;48.764;9.166;2022-11-11T18:55:07;7.90;99.90
14357;DHT22;7262;48.764;9.166;2022-11-11T18:57:34;7.90;99.90
14357;DHT22;7262;48.764;9.166;2022-11-11T19:00:02;7.90;99.90
14357;DHT22;7262;48.764;9.166;2022-11-11T19:02:29;7.90;99.90
14357;DHT22;7262;48.764;9.166;2022-11-11T19:04:58;7.80;99.90
14357;DHT22;7262;48.764;9.166;2022-11-11T19:07:25;7.90;99.90
14357;DHT22;7262;48.764;9.166;2022-11-11T19:09:52;7.80;99.90
14357;DHT22;7262;48.764;9.166;2022-11-11T19:12:18;7.80;99.90
14357;DHT22;7262;48.764;9.166;2022-11-11T19:14:45;7.80;99.90
14357;DHT22;7262;48.764;9.166;2022-11-11T19:17:12;7.80;99.90
14357;DHT22;7262;48.764;9.166;2022-11-11T19:19:39;7.90;99.90
14357;DHT22;7262;48.764;9.166;2022-11-11T19:22:07;7.60;99.90
14357;DHT22;7262;48.764;9.166;2022-11-11T19:24:33;7.90;99.90
14357;DHT22;7262;48.764;9.166;2022-11-11T19:27:00;7.70;99.90
14357;DHT22;7262;48.764;9.166;2022-11-11T19:29:27;7.60;99.90
14357;DHT22;7262;48.764;9.166;2022-11-11T19:31:53;7.60;99.90
14357;DHT22;7262;48.764;9.166;2022-11-11T19:34:20;7.60;99.90
14357;DHT22;7262;48.764;9.166;2022-11-11T19:36:47;7.50;99.90
14357;DHT22;7262;48.764;9.166;2022-11-11T19:39:15;7.50;99.90
14357;DHT22;7262;48.764;9.166;2022-11-11T19:41:42;7.50;99.90
14357;DHT22;7262;48.764;9.166;2022-11-11T19:44:09;7.50;99.90
14357;DHT22;7262;48.764;9.166;2022-11-11T19:46:36;7.40;99.90
14357;DHT22;7262;48.764;9.166;2022-11-11T19:49:05;7.40;99.90
14357;DHT22;7262;48.764;9.166;2022-11-11T19:51:32;7.50;99.90
14357;DHT22;7262;48.764;9.166;2022-11-11T19:53:59;7.40;99.90
14357;DHT22;7262;48.764;9.166;2022-11-11T19:56:29;7.50;99.90
14357;DHT22;7262;48.764;9.166;2022-11-11T19:58:56;7.40;99.90